createdAt,value
2023-12-11T00:02:24.530Z,77.00
2023-12-11T00:04:51.044Z,76.80
2023-12-11T00:07:17.600Z,77.80
2023-12-11T00:09:44.155Z,77.20
2023-12-11T00:12:10.707Z,77.70
2023-12-11T00:14:37.222Z,77.50
2023-12-11T00:17:03.758Z,77.70
2023-12-11T00:19:30.300Z,77.70
2023-12-11T00:21:56.884Z,78.00
2023-12-11T00:24:23.396Z,77.10
2023-12-11T00:26:49.936Z,77.40
2023-12-11T00:29:16.454Z,77.50
2023-12-11T00:31:43.010Z,77.40
2023-12-11T00:34:09.616Z,77.20
2023-12-11T00:36:36.235Z,77.70
2023-12-11T00:39:02.748Z,77.80
2023-12-11T00:41:29.264Z,78.30
2023-12-11T00:43:55.771Z,77.40
2023-12-11T00:46:22.364Z,78.30
2023-12-11T00:48:49.091Z,77.20
2023-12-11T00:51:15.720Z,78.10
2023-12-11T00:53:42.228Z,78.10
2023-12-11T00:56:08.759Z,78.30
2023-12-11T00:58:35.295Z,78.20
2023-12-11T01:01:01.882Z,78.10
2023-12-11T01:03:28.450Z,78.00
2023-12-11T01:05:55.005Z,78.80
2023-12-11T01:08:21.514Z,78.50
2023-12-11T01:10:48.055Z,79.00
2023-12-11T01:13:14.566Z,79.10
2023-12-11T01:15:41.135Z,78.90
2023-12-11T01:18:07.740Z,79.10
2023-12-11T01:20:34.650Z,79.30
2023-12-11T01:23:01.162Z,79.40
2023-12-11T01:25:27.704Z,79.40
2023-12-11T01:27:54.232Z,79.50
2023-12-11T01:30:20.825Z,79.40
2023-12-11T01:32:47.443Z,79.60
2023-12-11T01:35:13.973Z,79.30
2023-12-11T01:37:40.498Z,79.60
2023-12-11T01:40:07.038Z,79.60
2023-12-11T01:42:33.646Z,79.40
2023-12-11T01:45:00.333Z,79.40
2023-12-11T01:47:26.982Z,79.40
2023-12-11T01:49:53.600Z,79.70
2023-12-11T01:52:20.143Z,79.90
2023-12-11T01:54:46.706Z,79.70
2023-12-11T01:57:13.251Z,79.80
2023-12-11T01:59:39.760Z,79.80
2023-12-11T02:02:06.496Z,79.80
2023-12-11T02:04:33.204Z,79.60
2023-12-11T02:06:59.864Z,80.00
2023-12-11T02:09:26.394Z,80.00
2023-12-11T02:11:52.939Z,80.10
2023-12-11T02:14:19.449Z,79.70
2023-12-11T02:16:45.985Z,80.00
2023-12-11T02:19:12.591Z,80.00
2023-12-11T02:21:39.254Z,79.80
2023-12-11T02:24:05.802Z,80.20
2023-12-11T02:26:32.370Z,80.00
2023-12-11T02:28:58.884Z,80.10
2023-12-11T02:31:25.409Z,80.00
2023-12-11T02:33:52.029Z,79.80
2023-12-11T02:36:18.648Z,80.10
2023-12-11T02:38:46.342Z,80.00
2023-12-11T02:41:12.901Z,79.80
2023-12-11T02:43:39.421Z,80.00
2023-12-11T02:46:06.005Z,80.10
2023-12-11T02:48:32.737Z,80.00
2023-12-11T02:50:59.597Z,80.10
2023-12-11T02:53:26.137Z,80.10
2023-12-11T02:55:52.669Z,80.10
2023-12-11T02:58:19.240Z,80.00
2023-12-11T03:00:45.856Z,80.20
2023-12-11T03:03:12.399Z,80.00
2023-12-11T03:05:39.068Z,80.10
2023-12-11T03:08:05.678Z,80.20
2023-12-11T03:10:32.274Z,80.30
2023-12-11T03:12:58.864Z,80.20
2023-12-11T03:15:25.433Z,80.30
2023-12-11T03:17:51.994Z,80.10
2023-12-11T03:20:18.567Z,80.30
2023-12-11T03:22:45.091Z,81.10
2023-12-11T03:25:11.668Z,80.40
2023-12-11T03:27:38.268Z,80.30
2023-12-11T03:30:04.853Z,80.30
2023-12-11T03:32:31.402Z,80.30
2023-12-11T03:34:57.958Z,80.00
2023-12-11T03:37:24.485Z,80.10
2023-12-11T03:39:51.045Z,80.10
2023-12-11T03:42:17.598Z,80.20
2023-12-11T03:44:44.233Z,80.20
2023-12-11T03:47:10.749Z,80.30
2023-12-11T03:49:37.446Z,80.40
2023-12-11T03:52:04.083Z,80.40
2023-12-11T03:54:30.789Z,80.40
2023-12-11T03:56:57.370Z,80.40
2023-12-11T03:59:23.905Z,80.20
2023-12-11T04:01:50.520Z,80.10
2023-12-11T04:04:17.266Z,80.10
2023-12-11T04:06:43.878Z,80.20
2023-12-11T04:09:10.452Z,80.40
2023-12-11T04:11:36.966Z,80.40
2023-12-11T04:14:03.494Z,80.40
2023-12-11T04:16:30.021Z,80.50
2023-12-11T04:18:59.600Z,81.30
2023-12-11T04:21:27.173Z,80.60
2023-12-11T04:23:53.731Z,80.50
2023-12-11T04:26:20.246Z,80.70
2023-12-11T04:28:46.803Z,80.80
2023-12-11T04:31:13.536Z,80.80
2023-12-11T04:33:40.291Z,80.60
2023-12-11T04:36:06.887Z,80.60
2023-12-11T04:38:33.426Z,80.60
2023-12-11T04:40:59.955Z,80.50
2023-12-11T04:43:29.009Z,80.60
2023-12-11T04:45:57.251Z,80.70
2023-12-11T04:48:23.942Z,80.70
2023-12-11T04:50:50.510Z,80.70
2023-12-11T04:53:17.082Z,80.70
2023-12-11T04:55:43.709Z,80.50
2023-12-11T04:58:10.291Z,80.50
2023-12-11T05:00:36.936Z,80.40
2023-12-11T05:03:03.547Z,80.60
2023-12-11T05:05:30.183Z,80.70
2023-12-11T05:07:56.742Z,80.40
2023-12-11T05:10:23.323Z,80.70
2023-12-11T05:12:49.892Z,80.50
2023-12-11T05:15:16.481Z,80.80
2023-12-11T05:17:43.031Z,80.80
2023-12-11T05:20:09.667Z,80.50
2023-12-11T05:22:36.247Z,80.70
2023-12-11T05:25:02.876Z,80.60
2023-12-11T05:27:29.581Z,80.60
2023-12-11T05:29:56.285Z,80.60
2023-12-11T05:32:22.808Z,80.10
2023-12-11T05:34:49.397Z,80.40
2023-12-11T05:37:16.036Z,80.10
2023-12-11T05:39:50.296Z,80.30
2023-12-11T05:42:23.814Z,80.50
2023-12-11T05:44:50.386Z,80.70
2023-12-11T05:47:16.906Z,80.50
2023-12-11T05:49:43.487Z,80.80
2023-12-11T05:52:10.119Z,80.60
2023-12-11T05:54:36.750Z,80.70
2023-12-11T05:57:03.328Z,80.50
2023-12-11T05:59:29.856Z,80.00
2023-12-11T06:01:56.525Z,80.20
2023-12-11T06:04:23.106Z,80.30
2023-12-11T06:06:49.641Z,80.20
2023-12-11T06:09:16.212Z,80.10
2023-12-11T06:11:42.760Z,80.10
2023-12-11T06:14:09.294Z,80.30
2023-12-11T06:16:35.813Z,80.50
2023-12-11T06:19:02.497Z,80.40
2023-12-11T06:21:29.072Z,80.40
2023-12-11T06:23:58.900Z,80.30
2023-12-11T06:26:25.426Z,80.50
2023-12-11T06:28:51.972Z,80.70
2023-12-11T06:31:18.552Z,80.80
2023-12-11T06:33:45.123Z,80.80
2023-12-11T06:36:11.676Z,81.00
2023-12-11T06:38:38.225Z,80.90
2023-12-11T06:41:04.751Z,80.70
2023-12-11T06:43:31.324Z,80.60
2023-12-11T06:45:57.905Z,81.00
2023-12-11T06:48:24.521Z,80.80
2023-12-11T06:50:51.142Z,80.60
2023-12-11T06:53:17.715Z,80.80
2023-12-11T06:55:44.241Z,81.00
2023-12-11T06:58:10.822Z,80.80
2023-12-11T07:00:37.462Z,81.00
2023-12-11T07:03:04.077Z,81.00
2023-12-11T07:05:30.816Z,81.00
2023-12-11T07:07:57.505Z,81.00
2023-12-11T07:10:24.075Z,81.10
2023-12-11T07:12:50.794Z,81.00
2023-12-11T07:15:17.346Z,81.10
2023-12-11T07:17:44.064Z,81.20
2023-12-11T07:20:10.644Z,81.10
2023-12-11T07:22:37.216Z,81.00
2023-12-11T07:25:03.848Z,81.30
2023-12-11T07:27:30.707Z,81.40
2023-12-11T07:29:57.375Z,81.30
2023-12-11T07:32:23.943Z,81.20
2023-12-11T07:34:50.502Z,81.10
2023-12-11T07:37:17.195Z,81.10
2023-12-11T07:39:43.792Z,81.00
2023-12-11T07:42:10.353Z,81.00
2023-12-11T07:44:36.877Z,81.10
2023-12-11T07:47:03.408Z,81.00
2023-12-11T07:49:30.065Z,81.20
2023-12-11T07:51:56.693Z,80.70
2023-12-11T07:54:23.232Z,80.90
2023-12-11T07:56:49.774Z,81.10
2023-12-11T07:59:16.288Z,81.30
2023-12-11T08:01:42.933Z,81.20
2023-12-11T08:04:09.737Z,81.20
2023-12-11T08:06:36.359Z,81.10
2023-12-11T08:09:02.944Z,81.00
2023-12-11T08:11:29.472Z,80.90
2023-12-11T08:13:56.013Z,81.00
2023-12-11T08:16:22.635Z,80.70
2023-12-11T08:18:49.279Z,80.80
2023-12-11T08:21:15.938Z,80.70
2023-12-11T08:23:42.472Z,80.70
2023-12-11T08:26:09.084Z,80.90
2023-12-11T08:28:35.656Z,80.90
2023-12-11T08:31:02.241Z,80.70
2023-12-11T08:33:28.795Z,81.10
2023-12-11T08:35:55.405Z,80.80
2023-12-11T08:38:21.925Z,80.90
2023-12-11T08:40:48.467Z,80.70
2023-12-11T08:43:15.032Z,80.70
2023-12-11T08:45:41.610Z,80.80
2023-12-11T08:48:08.300Z,81.20
2023-12-11T08:50:34.906Z,81.40
2023-12-11T08:53:01.411Z,81.00
2023-12-11T08:55:28.042Z,81.10
2023-12-11T08:57:54.626Z,81.10
2023-12-11T09:00:21.272Z,81.20
2023-12-11T09:02:47.840Z,81.10
2023-12-11T09:05:14.373Z,81.10
2023-12-11T09:07:40.900Z,81.10
2023-12-11T09:10:07.457Z,81.00
2023-12-11T09:12:34.321Z,81.10
2023-12-11T09:15:00.934Z,81.10
2023-12-11T09:17:27.582Z,81.20
2023-12-11T09:19:55.939Z,81.40
2023-12-11T09:22:23.200Z,81.20
2023-12-11T09:24:49.891Z,81.40
2023-12-11T09:27:16.500Z,81.30
2023-12-11T09:29:43.073Z,81.40
2023-12-11T09:32:09.598Z,81.30
2023-12-11T09:34:36.304Z,81.20
2023-12-11T09:37:03.027Z,81.10
2023-12-11T09:39:29.607Z,81.00
2023-12-11T09:41:56.110Z,81.40
2023-12-11T09:44:22.632Z,81.40
2023-12-11T09:46:49.161Z,81.20
2023-12-11T09:49:15.789Z,81.70
2023-12-11T09:51:42.446Z,81.50
2023-12-11T09:54:08.995Z,81.70
2023-12-11T09:56:35.501Z,81.80
2023-12-11T09:59:02.047Z,82.00
2023-12-11T10:01:28.647Z,81.80
2023-12-11T10:03:55.299Z,81.90
2023-12-11T10:06:21.844Z,81.70
2023-12-11T10:08:48.410Z,81.50
2023-12-11T10:11:14.934Z,81.30
2023-12-11T10:13:41.471Z,81.60
2023-12-11T10:16:08.007Z,81.60
2023-12-11T10:18:34.602Z,81.60
2023-12-11T10:21:01.125Z,81.60
2023-12-11T10:23:27.656Z,81.90
2023-12-11T10:25:54.189Z,81.60
2023-12-11T10:28:21.073Z,81.50
2023-12-11T10:30:48.041Z,81.60
2023-12-11T10:33:14.749Z,81.40
2023-12-11T10:35:41.492Z,81.40
2023-12-11T10:38:08.147Z,81.40
2023-12-11T10:40:34.676Z,81.40
2023-12-11T10:43:01.211Z,81.60
2023-12-11T10:45:27.753Z,81.40
2023-12-11T10:47:54.337Z,81.60
2023-12-11T10:50:21.020Z,81.70
2023-12-11T10:52:47.596Z,81.80
2023-12-11T10:55:14.526Z,81.70
2023-12-11T10:57:41.279Z,81.50
2023-12-11T11:00:07.852Z,81.50
2023-12-11T11:02:34.376Z,81.30
2023-12-11T11:05:00.947Z,81.10
2023-12-11T11:07:27.664Z,81.20
2023-12-11T11:09:54.348Z,81.20
2023-12-11T11:12:20.881Z,81.20
2023-12-11T11:14:47.416Z,81.00
2023-12-11T11:17:13.920Z,81.00
2023-12-11T11:19:40.577Z,81.30
2023-12-11T11:22:07.130Z,81.30
2023-12-11T11:24:33.807Z,81.10
2023-12-11T11:27:00.323Z,81.30
2023-12-11T11:29:26.949Z,81.40
2023-12-11T11:31:53.630Z,81.60
2023-12-11T11:34:20.451Z,81.50
2023-12-11T11:36:47.054Z,81.40
2023-12-11T11:39:13.642Z,81.40
2023-12-11T11:41:40.265Z,81.40
2023-12-11T11:44:06.935Z,81.30
2023-12-11T11:46:33.640Z,81.30
2023-12-11T11:49:00.290Z,81.20
2023-12-11T11:51:26.865Z,81.20
2023-12-11T11:53:53.422Z,81.20
2023-12-11T11:56:19.962Z,81.20
2023-12-11T11:58:46.537Z,81.20
2023-12-11T12:01:13.274Z,81.00
2023-12-11T12:03:39.969Z,81.00
2023-12-11T12:06:06.584Z,80.90
2023-12-11T12:08:33.109Z,80.90
2023-12-11T12:10:59.613Z,80.70
2023-12-11T12:13:26.203Z,80.60
2023-12-11T12:15:52.750Z,80.70
2023-12-11T12:18:19.389Z,80.80
2023-12-11T12:20:45.955Z,80.80
2023-12-11T12:23:12.462Z,80.70
2023-12-11T12:25:38.968Z,80.70
2023-12-11T12:28:05.549Z,80.70
2023-12-11T12:30:32.076Z,80.70
2023-12-11T12:32:58.623Z,80.70
2023-12-11T12:35:25.188Z,80.50
2023-12-11T12:37:51.692Z,80.40
2023-12-11T12:40:18.292Z,80.40
2023-12-11T12:42:44.838Z,80.30
2023-12-11T12:45:12.955Z,80.40
2023-12-11T12:47:40.742Z,80.40
2023-12-11T12:50:07.339Z,80.50
2023-12-11T12:52:33.889Z,80.30
2023-12-11T12:55:00.487Z,80.30
2023-12-11T12:57:27.037Z,80.30
2023-12-11T12:59:53.553Z,80.40
2023-12-11T13:02:20.060Z,80.10
2023-12-11T13:04:46.672Z,80.30
2023-12-11T13:07:13.269Z,80.20
2023-12-11T13:09:39.837Z,80.20
2023-12-11T13:12:06.379Z,80.10
2023-12-11T13:14:32.925Z,80.10
2023-12-11T13:16:59.435Z,80.00
2023-12-11T13:19:26.217Z,80.00
2023-12-11T13:21:52.913Z,80.00
2023-12-11T13:24:19.484Z,79.80
2023-12-11T13:26:45.988Z,79.80
2023-12-11T13:29:12.501Z,79.70
2023-12-11T13:31:39.013Z,79.70
2023-12-11T13:34:05.592Z,79.80
2023-12-11T13:36:32.192Z,79.50
2023-12-11T13:38:58.738Z,79.60
2023-12-11T13:41:25.276Z,79.80
2023-12-11T13:43:51.801Z,79.80
2023-12-11T13:46:18.392Z,79.80
2023-12-11T13:48:45.139Z,79.60
2023-12-11T13:51:11.778Z,79.40
2023-12-11T13:53:38.292Z,79.30
2023-12-11T13:56:04.850Z,79.60
2023-12-11T13:58:31.385Z,79.30
2023-12-11T14:00:58.112Z,79.20
2023-12-11T14:03:24.720Z,79.20
2023-12-11T14:05:51.358Z,79.10
2023-12-11T14:08:17.918Z,79.00
2023-12-11T14:10:44.458Z,79.20
2023-12-11T14:13:11.005Z,79.20
2023-12-11T14:15:37.570Z,79.00
2023-12-11T14:18:04.151Z,78.90
2023-12-11T14:20:30.711Z,79.10
2023-12-11T14:22:57.200Z,79.10
2023-12-11T14:25:23.819Z,79.10
2023-12-11T14:27:50.391Z,79.00
2023-12-11T14:30:16.928Z,79.00
2023-12-11T14:32:43.532Z,79.20
2023-12-11T14:35:10.531Z,79.00
2023-12-11T14:37:37.209Z,79.00
2023-12-11T14:40:03.815Z,78.90
2023-12-11T14:42:30.373Z,79.10
2023-12-11T14:44:56.887Z,79.00
2023-12-11T14:47:23.415Z,78.80
2023-12-11T14:49:50.057Z,78.90
2023-12-11T14:52:16.743Z,78.70
2023-12-11T14:54:43.326Z,78.60
2023-12-11T14:57:10.012Z,78.60
2023-12-11T14:59:36.522Z,78.60
2023-12-11T15:02:03.290Z,78.90
2023-12-11T15:04:29.976Z,78.70
2023-12-11T15:06:56.598Z,78.90
2023-12-11T15:09:23.134Z,78.70
2023-12-11T15:11:49.680Z,78.80
2023-12-11T15:14:17.068Z,78.80
2023-12-11T15:16:43.805Z,79.00
2023-12-11T15:19:10.700Z,78.90
2023-12-11T15:21:37.399Z,78.80
2023-12-11T15:24:03.959Z,78.80
2023-12-11T15:26:30.521Z,78.70
2023-12-11T15:28:57.019Z,78.80
2023-12-11T15:31:23.756Z,78.80
2023-12-11T15:33:50.428Z,79.00
2023-12-11T15:36:16.978Z,79.00
2023-12-11T15:38:43.524Z,79.10
2023-12-11T15:41:10.044Z,79.10
2023-12-11T15:43:36.572Z,79.00
2023-12-11T15:46:03.127Z,79.10
2023-12-11T15:48:29.866Z,79.30
2023-12-11T15:50:56.556Z,79.30
2023-12-11T15:53:23.159Z,79.10
2023-12-11T15:55:49.691Z,79.10
2023-12-11T15:58:16.278Z,79.30
2023-12-11T16:00:42.831Z,79.40
2023-12-11T16:03:09.404Z,79.20
2023-12-11T16:05:35.925Z,79.10
2023-12-11T16:08:02.431Z,79.00
2023-12-11T16:10:29.014Z,79.20
2023-12-11T16:12:55.585Z,79.30
2023-12-11T16:15:22.115Z,79.30
2023-12-11T16:17:48.706Z,78.90
2023-12-11T16:20:15.297Z,78.90
2023-12-11T16:22:41.841Z,79.00
2023-12-11T16:25:08.416Z,78.90
2023-12-11T16:27:34.979Z,79.00
2023-12-11T16:30:01.521Z,79.10
2023-12-11T16:32:28.254Z,79.00
2023-12-11T16:34:54.941Z,79.20
2023-12-11T16:37:21.537Z,79.20
2023-12-11T16:39:48.142Z,79.10
2023-12-11T16:42:14.752Z,79.00
2023-12-11T16:44:41.288Z,78.90
2023-12-11T16:47:07.810Z,79.10
2023-12-11T16:49:40.731Z,79.00
2023-12-11T16:52:11.903Z,79.10
2023-12-11T16:54:38.585Z,79.10
2023-12-11T16:57:05.083Z,78.80
2023-12-11T16:59:31.618Z,78.80
2023-12-11T17:01:58.204Z,79.00
2023-12-11T17:04:24.910Z,79.10
2023-12-11T17:06:51.549Z,79.20
2023-12-11T17:09:18.111Z,79.20
2023-12-11T17:11:44.627Z,79.10
2023-12-11T17:14:11.172Z,79.00
2023-12-11T17:16:37.710Z,79.00
2023-12-11T17:19:04.375Z,79.00
2023-12-11T17:21:34.103Z,79.00
2023-12-11T17:24:01.011Z,79.00
2023-12-11T17:26:27.508Z,79.10
2023-12-11T17:28:54.036Z,79.00
2023-12-11T17:31:20.590Z,78.90
2023-12-11T17:33:47.251Z,79.30
2023-12-11T17:36:13.815Z,79.40
2023-12-11T17:38:40.323Z,79.30
2023-12-11T17:41:06.846Z,79.40
2023-12-11T17:43:33.361Z,80.00
2023-12-11T17:45:59.909Z,79.20
2023-12-11T17:48:26.496Z,79.20
2023-12-11T17:50:53.052Z,79.40
2023-12-11T17:53:19.565Z,79.60
2023-12-11T17:55:46.098Z,79.50
2023-12-11T17:58:12.658Z,79.40
2023-12-11T18:00:39.238Z,79.30
2023-12-11T18:03:05.796Z,79.50
2023-12-11T18:05:32.322Z,79.60
2023-12-11T18:07:58.838Z,79.60
2023-12-11T18:10:25.439Z,79.40
2023-12-11T18:12:52.078Z,79.50
2023-12-11T18:15:18.644Z,79.90
2023-12-11T18:17:45.166Z,79.60
2023-12-11T18:20:11.787Z,79.50
2023-12-11T18:22:38.452Z,79.60
2023-12-11T18:25:05.059Z,79.40
2023-12-11T18:27:31.822Z,79.80
2023-12-11T18:29:58.455Z,79.90
2023-12-11T18:32:24.965Z,79.80
2023-12-11T18:34:54.777Z,79.90
2023-12-11T18:37:22.010Z,79.90
2023-12-11T18:39:48.746Z,80.00
2023-12-11T18:42:15.289Z,80.10
2023-12-11T18:44:42.362Z,80.00
2023-12-11T18:47:08.862Z,79.90
2023-12-11T18:49:35.453Z,80.10
2023-12-11T18:52:02.033Z,80.00
2023-12-11T18:54:28.572Z,80.00
2023-12-11T18:56:56.374Z,80.00
2023-12-11T18:59:22.910Z,79.80
2023-12-11T19:01:49.534Z,79.80
2023-12-11T19:04:16.358Z,79.90
2023-12-11T19:06:43.107Z,79.90
2023-12-11T19:09:09.616Z,80.00
2023-12-11T19:11:36.160Z,80.10
2023-12-11T19:14:02.658Z,80.30
2023-12-11T19:16:29.260Z,80.00
2023-12-11T19:18:55.906Z,80.00
2023-12-11T19:21:22.519Z,80.00
2023-12-11T19:23:49.005Z,80.10
2023-12-11T19:26:15.519Z,80.10
2023-12-11T19:28:42.030Z,79.90
2023-12-11T19:31:08.640Z,80.00
2023-12-11T19:33:35.286Z,80.00
2023-12-11T19:36:01.879Z,79.90
2023-12-11T19:38:28.380Z,80.00
2023-12-11T19:40:54.894Z,80.30
2023-12-11T19:43:21.428Z,80.30
2023-12-11T19:45:47.983Z,80.20
2023-12-11T19:48:14.628Z,80.10
2023-12-11T19:50:41.187Z,79.90
2023-12-11T19:53:07.676Z,80.00
2023-12-11T19:55:34.235Z,80.00
2023-12-11T19:58:00.785Z,80.40
2023-12-11T20:00:27.295Z,80.30
2023-12-11T20:02:53.802Z,80.40
2023-12-11T20:05:20.363Z,80.00
2023-12-11T20:07:46.891Z,80.40
2023-12-11T20:10:13.479Z,79.90
2023-12-11T20:12:40.042Z,80.00
2023-12-11T20:15:06.574Z,80.30
2023-12-11T20:17:33.330Z,80.10
2023-12-11T20:20:00.036Z,80.20
2023-12-11T20:22:26.633Z,80.10
2023-12-11T20:24:53.229Z,80.00
2023-12-11T20:27:19.773Z,80.00
2023-12-11T20:29:46.383Z,80.10
2023-12-11T20:32:12.916Z,80.00
2023-12-11T20:34:39.482Z,80.10
2023-12-11T20:37:06.072Z,80.00
2023-12-11T20:39:32.593Z,80.10
2023-12-11T20:41:59.092Z,80.00
2023-12-11T20:44:25.596Z,79.90
2023-12-11T20:46:52.132Z,79.90
2023-12-11T20:49:18.781Z,79.90
2023-12-11T20:51:45.410Z,79.80
2023-12-11T20:54:12.048Z,79.80
2023-12-11T20:56:38.588Z,79.90
2023-12-11T20:59:05.106Z,80.00
2023-12-11T21:01:31.721Z,79.90
2023-12-11T21:03:58.530Z,80.00
2023-12-11T21:06:25.181Z,79.90
2023-12-11T21:08:51.689Z,79.80
2023-12-11T21:11:18.197Z,79.80
2023-12-11T21:13:44.703Z,80.40
2023-12-11T21:16:11.240Z,79.70
2023-12-11T21:18:37.892Z,79.70
2023-12-11T21:21:04.450Z,79.80
2023-12-11T21:23:30.957Z,79.60
2023-12-11T21:25:59.246Z,79.60
2023-12-11T21:28:26.088Z,79.60
2023-12-11T21:30:52.657Z,79.60
2023-12-11T21:33:19.213Z,79.50
2023-12-11T21:35:45.730Z,79.70
2023-12-11T21:38:13.935Z,79.40
2023-12-11T21:40:41.350Z,79.40
2023-12-11T21:43:07.905Z,79.50
2023-12-11T21:45:34.469Z,79.60
2023-12-11T21:48:01.142Z,79.60
2023-12-11T21:50:27.737Z,79.50
2023-12-11T21:52:54.251Z,79.50
2023-12-11T21:55:20.834Z,79.50
2023-12-11T21:57:47.397Z,79.60
2023-12-11T22:00:17.868Z,79.60
2023-12-11T22:02:44.414Z,79.50
2023-12-11T22:05:11.024Z,79.50
2023-12-11T22:07:38.529Z,79.50
2023-12-11T22:10:05.087Z,79.40
2023-12-11T22:12:31.632Z,79.30
2023-12-11T22:14:58.142Z,79.60
2023-12-11T22:17:24.638Z,79.50
2023-12-11T22:19:51.311Z,79.50
2023-12-11T22:22:17.893Z,79.40
2023-12-11T22:24:44.417Z,79.50
2023-12-11T22:27:10.926Z,79.40
2023-12-11T22:29:37.427Z,79.30
2023-12-11T22:32:03.977Z,79.20
2023-12-11T22:34:30.568Z,79.10
2023-12-11T22:36:57.172Z,79.10
2023-12-11T22:39:23.701Z,79.20
2023-12-11T22:41:50.213Z,79.20
2023-12-11T22:44:16.777Z,79.20
2023-12-11T22:46:43.297Z,79.50
2023-12-11T22:49:09.875Z,79.40
2023-12-11T22:51:36.424Z,79.40
2023-12-11T22:54:02.964Z,79.40
2023-12-11T22:56:29.478Z,79.40
2023-12-11T22:58:56.042Z,79.50
2023-12-11T23:01:22.702Z,79.60
2023-12-11T23:03:49.454Z,79.40
2023-12-11T23:06:16.073Z,79.30
2023-12-11T23:08:42.619Z,79.40
2023-12-11T23:11:09.122Z,79.20
2023-12-11T23:13:35.690Z,79.20
2023-12-11T23:16:02.230Z,79.10
2023-12-11T23:18:28.817Z,79.20
2023-12-11T23:20:55.357Z,79.10
2023-12-11T23:23:21.866Z,79.40
2023-12-11T23:25:54.652Z,79.20
2023-12-11T23:28:25.486Z,79.20
2023-12-11T23:30:52.027Z,79.40
2023-12-11T23:33:18.658Z,79.10
2023-12-11T23:35:45.198Z,79.10
2023-12-11T23:38:11.706Z,79.20
2023-12-11T23:40:38.232Z,79.10
2023-12-11T23:43:04.804Z,79.10
2023-12-11T23:45:31.333Z,79.00
2023-12-11T23:47:57.872Z,79.00
2023-12-11T23:50:24.535Z,79.10
2023-12-11T23:52:51.102Z,79.00
2023-12-11T23:55:17.680Z,78.90
2023-12-11T23:57:44.239Z,79.20
